메인 페이지
METAR-TAF:

METAR-TAF

공항 :

Westfield / 스프링필드, 매사추세츠, 미국

위도: 42-09-35N, 경도: 072-42-46W, 고도: 82m

현재 날씨관측

예보는 33분 전, 22:53시(UTC)에 발표되었습니다.
북북동3kt
온도 7°C
습도 53%
기압 1015 hPa
시정: 16.1km
맑음

METAR: KBAF 312253Z 02003KT 10SM CLR 07/M02 A2996 RMK AO2 SLP151 T00671022

시각: 19:26 (23:26 UTC)

예보

예보는 3 시간 9분 전, 20:17시(UTC)에 발표되었습니다.
예보 대상 시간: 31일 20시부터 01일 18시까지 (UTC)
5kt
시정: 10km
고도 4000ft 상공 구름 많음
31일 2200시부터 (UTC)
북북동4kt
시정: 10km
고도 4500ft 상공 구름 보통
01일 0600시부터 (UTC)
북북동3kt
시정: 10km
고도 3500ft 상공 구름 많음
01일 0800시부터 (UTC)
3kt
시정: 10km
고도 3000ft 상공 구름 보통
01일 1000시부터 (UTC)
3kt
시정: 10km
고도 6000ft 상공 구름 보통

TAF: KBAF 312017Z 3120/0118 36005KT P6SM BKN040 FM312200 02004KT P6SM SCT045 FM010600 02003KT P6SM BKN035 FM010800 01003KT P6SM SCT030 FM011000 01003KT P6SM SCT060

4,000개 이상의 공항 관측 자료 및 예보 (METAR 및 TAF 보고).

지도상에서 검색 가능한 기상관측소가 노란 점과 빨간 점으로 표시되어 있습니다.

기상관측소 명을 보려면 표시 위로 마우스를 이동하세요.

날씨 관측과 예보를 보려면 클릭하세요.

지도 변경 : 확대하려면 엑스 표시가 있는 녹색 버튼, 축소하려면 빼기 표시가 있는 녹색 버튼, 다음 페이지의 지도를 보려면 녹색 화살표를 클릭하세요.


METAR-TAF: